createdAt,value
2018-01-19T00:00:55.751Z,99462.39
2018-01-19T00:03:23.313Z,99472.50
2018-01-19T00:05:50.905Z,99467.02
2018-01-19T00:08:18.922Z,99478.30
2018-01-19T00:10:46.489Z,99490.06
2018-01-19T00:13:14.452Z,99486.29
2018-01-19T00:15:42.018Z,99493.45
2018-01-19T00:18:09.607Z,99501.75
2018-01-19T00:20:37.242Z,99502.01
2018-01-19T00:23:04.802Z,99507.84
2018-01-19T00:25:32.465Z,99511.05
2018-01-19T00:28:00.330Z,99512.34
2018-01-19T00:30:27.910Z,99515.84
2018-01-19T00:32:55.861Z,99515.60
2018-01-19T00:35:23.421Z,99523.52
2018-01-19T00:37:51.045Z,99529.99
2018-01-19T00:40:18.618Z,99528.52
2018-01-19T00:42:46.178Z,99534.31
2018-01-19T00:45:14.087Z,99532.43
2018-01-19T00:47:41.650Z,99541.95
2018-01-19T00:50:09.227Z,99542.22
2018-01-19T00:52:37.172Z,99541.22
2018-01-19T00:55:04.743Z,99541.73
2018-01-19T00:57:32.524Z,99546.77
2018-01-19T01:00:00.341Z,99555.25
2018-01-19T01:02:27.917Z,99559.17
2018-01-19T01:04:55.524Z,99564.45
2018-01-19T01:07:23.085Z,99567.60
2018-01-19T01:09:51.029Z,99570.50
2018-01-19T01:12:18.600Z,99568.17
2018-01-19T01:14:46.191Z,99570.39
2018-01-19T01:17:13.863Z,99567.42
2018-01-19T01:19:41.469Z,99577.84
2018-01-19T01:22:09.345Z,99568.32
2018-01-19T01:24:37.205Z,99572.69
2018-01-19T01:27:04.845Z,99578.25
2018-01-19T01:29:32.458Z,99577.39
2018-01-19T01:32:00.085Z,99582.17
2018-01-19T01:34:27.703Z,99583.88
2018-01-19T01:36:55.262Z,99591.06
2018-01-19T01:39:22.869Z,99585.38
2018-01-19T01:41:50.419Z,99590.73
2018-01-19T01:44:18.083Z,99590.66
2018-01-19T01:46:45.952Z,99599.43
2018-01-19T01:49:13.505Z,99599.43
2018-01-19T01:51:41.135Z,99604.41
2018-01-19T01:54:09.047Z,99606.43
2018-01-19T01:56:36.688Z,99608.92
2018-01-19T01:59:04.260Z,99610.91
2018-01-19T02:01:31.828Z,99618.18
2018-01-19T02:03:59.405Z,99618.34
2018-01-19T02:06:26.967Z,99618.94
2018-01-19T02:08:54.561Z,99618.94
2018-01-19T02:11:22.133Z,99622.73
2018-01-19T02:13:50.052Z,99624.95
2018-01-19T02:16:17.761Z,99628.02
2018-01-19T02:18:45.357Z,99628.88
2018-01-19T02:21:12.941Z,99628.64
2018-01-19T02:23:40.538Z,99633.66
2018-01-19T02:26:08.095Z,99630.53
2018-01-19T02:28:35.689Z,99638.41
2018-01-19T02:31:03.297Z,99641.61
2018-01-19T02:33:30.894Z,99644.09
2018-01-19T02:35:58.445Z,99643.19
2018-01-19T02:38:26.045Z,99643.37
2018-01-19T02:40:53.593Z,99644.36
2018-01-19T02:43:21.188Z,99649.73
2018-01-19T02:45:48.816Z,99645.67
2018-01-19T02:48:16.385Z,99649.86
2018-01-19T02:50:44.005Z,99652.11
2018-01-19T02:53:11.601Z,99655.92
2018-01-19T02:55:39.280Z,99659.77
2018-01-19T02:58:06.849Z,99658.78
2018-01-19T03:00:34.453Z,99658.71
2018-01-19T03:03:02.203Z,99658.48
2018-01-19T03:05:29.794Z,99664.73
2018-01-19T03:07:57.403Z,99667.30
2018-01-19T03:10:24.933Z,99666.88
2018-01-19T03:12:52.504Z,99668.95
2018-01-19T03:15:20.102Z,99673.48
2018-01-19T03:17:47.681Z,99671.41
2018-01-19T03:20:15.321Z,99668.62
2018-01-19T03:22:42.922Z,99672.16
2018-01-19T03:25:10.495Z,99675.92
2018-01-19T03:27:38.044Z,99668.92
2018-01-19T03:30:05.616Z,99677.77
2018-01-19T03:32:33.193Z,99680.14
2018-01-19T03:35:00.754Z,99683.35
2018-01-19T03:37:28.333Z,99690.69
2018-01-19T03:39:55.889Z,99691.41
2018-01-19T03:42:23.472Z,99692.09
2018-01-19T03:44:51.114Z,99697.73
2018-01-19T03:47:18.992Z,99699.06
2018-01-19T03:49:46.556Z,99697.52
2018-01-19T03:52:14.134Z,99707.76
2018-01-19T03:54:41.696Z,99705.57
2018-01-19T03:57:09.296Z,99708.05
2018-01-19T03:59:36.908Z,99713.41
2018-01-19T04:02:04.780Z,99714.05
2018-01-19T04:04:32.370Z,99717.22
2018-01-19T04:06:59.976Z,99722.64
2018-01-19T04:09:27.544Z,99718.91
2018-01-19T04:11:55.100Z,99711.67
2018-01-19T04:14:23.031Z,99724.45
2018-01-19T04:16:50.586Z,99727.20
2018-01-19T04:19:18.412Z,99728.83
2018-01-19T04:21:46.014Z,99730.99
2018-01-19T04:24:13.591Z,99737.92
2018-01-19T04:26:41.157Z,99741.81
2018-01-19T04:29:08.748Z,99745.30
2018-01-19T04:34:10.143Z,99754.02
2018-01-19T04:36:37.741Z,99756.63
2018-01-19T04:39:05.335Z,99759.50
2018-01-19T04:41:32.941Z,99750.71
2018-01-19T04:44:00.533Z,99759.98
2018-01-19T04:46:28.134Z,99759.38
2018-01-19T04:48:55.748Z,99760.20
2018-01-19T04:51:23.306Z,99760.96
2018-01-19T04:53:50.867Z,99765.95
2018-01-19T04:56:18.468Z,99765.31
2018-01-19T04:58:46.359Z,99772.68
2018-01-19T05:01:13.957Z,99770.91
2018-01-19T05:03:41.556Z,99773.17
2018-01-19T05:06:09.124Z,99778.10
2018-01-19T05:08:36.694Z,99779.21
2018-01-19T05:11:04.295Z,99786.09
2018-01-19T05:13:31.863Z,99788.53
2018-01-19T05:15:59.682Z,99790.48
2018-01-19T05:18:27.283Z,99788.30
2018-01-19T05:20:54.880Z,99787.91
2018-01-19T05:23:22.449Z,99788.53
2018-01-19T05:25:50.060Z,99790.37
2018-01-19T05:28:17.622Z,99791.09
2018-01-19T05:30:45.219Z,99795.23
2018-01-19T05:33:12.815Z,99797.52
2018-01-19T05:35:40.439Z,99799.00
2018-01-19T05:38:07.980Z,99800.14
2018-01-19T05:40:35.602Z,99805.16
2018-01-19T05:43:03.258Z,99809.45
2018-01-19T05:45:30.828Z,99815.34
2018-01-19T05:47:58.430Z,99815.90
2018-01-19T05:50:26.017Z,99820.77
2018-01-19T05:52:53.649Z,99823.75
2018-01-19T05:55:21.273Z,99824.17
2018-01-19T05:57:48.846Z,99823.11
2018-01-19T06:00:16.439Z,99831.44
2018-01-19T06:02:44.048Z,99830.91
2018-01-19T06:05:11.649Z,99831.95
2018-01-19T06:07:39.207Z,99839.64
2018-01-19T06:10:06.776Z,99849.16
2018-01-19T06:12:34.407Z,99850.40
2018-01-19T06:15:01.962Z,99853.52
2018-01-19T06:17:29.520Z,99861.44
2018-01-19T06:19:57.116Z,99863.14
2018-01-19T06:22:24.709Z,99870.87
2018-01-19T06:24:52.756Z,99861.72
2018-01-19T06:27:20.289Z,99865.60
2018-01-19T06:29:47.889Z,99874.77
2018-01-19T06:32:15.533Z,99869.80
2018-01-19T06:34:43.357Z,99878.50
2018-01-19T06:37:10.949Z,99880.56
2018-01-19T06:39:38.546Z,99878.92
2018-01-19T06:42:06.132Z,99880.36
2018-01-19T06:44:34.010Z,99887.39
2018-01-19T06:47:01.613Z,99885.77
2018-01-19T06:49:29.197Z,99886.88
2018-01-19T06:51:57.112Z,99880.92
2018-01-19T06:54:24.775Z,99894.30
2018-01-19T06:56:52.360Z,99895.45
2018-01-19T06:59:19.953Z,99894.33
2018-01-19T07:01:47.584Z,99901.38
2018-01-19T07:04:15.553Z,99907.16
2018-01-19T07:06:43.191Z,99908.63
2018-01-19T07:09:10.803Z,99914.42
2018-01-19T07:11:38.393Z,99908.55
2018-01-19T07:14:05.949Z,99916.81
2018-01-19T07:16:33.555Z,99921.81
2018-01-19T07:19:01.146Z,99924.21
2018-01-19T07:21:28.695Z,99927.19
2018-01-19T07:23:56.304Z,99928.67
2018-01-19T07:26:23.883Z,99922.38
2018-01-19T07:28:51.490Z,99937.48
2018-01-19T07:31:19.088Z,99941.64
2018-01-19T07:33:46.702Z,99950.45
2018-01-19T07:36:14.337Z,99949.82
2018-01-19T07:38:42.202Z,99959.05
2018-01-19T07:41:09.872Z,99961.21
2018-01-19T07:43:37.440Z,99970.00
2018-01-19T07:46:05.045Z,99964.63
2018-01-19T07:48:32.654Z,99964.16
2018-01-19T07:51:00.214Z,99960.50
2018-01-19T07:53:27.887Z,99963.83
2018-01-19T07:55:55.500Z,99966.66
2018-01-19T07:58:23.406Z,99969.52
2018-01-19T08:00:51.011Z,99975.70
2018-01-19T08:03:18.591Z,99978.50
2018-01-19T08:05:46.187Z,99979.75
2018-01-19T08:08:14.060Z,99987.52
2018-01-19T08:10:41.647Z,99991.22
2018-01-19T08:13:09.295Z,99995.10
2018-01-19T08:15:36.932Z,99996.78
2018-01-19T08:18:04.532Z,100004.57
2018-01-19T08:20:32.371Z,100005.06
2018-01-19T08:23:00.018Z,100007.28
2018-01-19T08:25:27.571Z,100004.80
2018-01-19T08:27:55.184Z,100014.00
2018-01-19T08:30:22.817Z,100013.40
2018-01-19T08:32:50.379Z,100024.14
2018-01-19T08:35:17.966Z,100027.28
2018-01-19T08:37:45.643Z,100030.88
2018-01-19T08:40:13.248Z,100036.27
2018-01-19T08:42:40.841Z,100044.09
2018-01-19T08:45:08.460Z,100049.12
2018-01-19T08:47:36.018Z,100051.02
2018-01-19T08:50:03.747Z,100052.61
2018-01-19T08:52:31.343Z,100054.73
2018-01-19T08:54:58.941Z,100054.90
2018-01-19T08:57:26.542Z,100056.77
2018-01-19T08:59:54.165Z,100058.43
2018-01-19T09:02:21.806Z,100052.73
2018-01-19T09:04:49.482Z,100059.98
2018-01-19T09:07:17.120Z,100065.61
2018-01-19T09:09:44.702Z,100066.84
2018-01-19T09:12:12.339Z,100067.34
2018-01-19T09:14:39.960Z,100075.64
2018-01-19T09:17:07.564Z,100076.89
2018-01-19T09:19:35.148Z,100077.70
2018-01-19T09:22:02.763Z,100080.27
2018-01-19T09:24:30.321Z,100083.33
2018-01-19T09:26:57.891Z,100092.56
2018-01-19T09:29:25.513Z,100094.50
2018-01-19T09:31:53.103Z,100100.48
2018-01-19T09:34:20.681Z,100104.72
2018-01-19T09:36:48.299Z,100104.69
2018-01-19T09:39:15.904Z,100104.80
2018-01-19T09:41:43.459Z,100108.41
2018-01-19T09:44:11.085Z,100109.80
2018-01-19T09:46:38.698Z,100118.20
2018-01-19T09:49:06.622Z,100121.83
2018-01-19T09:51:34.573Z,100111.91
2018-01-19T09:54:02.153Z,100124.19
2018-01-19T09:56:29.999Z,100124.58
2018-01-19T09:58:57.636Z,100121.97
2018-01-19T10:01:25.217Z,100125.86
2018-01-19T10:03:52.815Z,100124.54
2018-01-19T10:06:20.417Z,100131.91
2018-01-19T10:08:47.989Z,100136.98
2018-01-19T10:11:15.590Z,100137.89
2018-01-19T10:13:43.216Z,100146.84
2018-01-19T10:16:10.802Z,100144.30
2018-01-19T10:18:38.669Z,100140.61
2018-01-19T10:21:06.308Z,100144.49
2018-01-19T10:23:34.188Z,100150.38
2018-01-19T10:26:01.808Z,100148.98
2018-01-19T10:28:29.421Z,100149.63
2018-01-19T10:30:56.989Z,100154.20
2018-01-19T10:33:24.593Z,100151.48
2018-01-19T10:35:52.204Z,100158.31
2018-01-19T10:38:19.776Z,100157.05
2018-01-19T10:40:47.351Z,100155.73
2018-01-19T10:43:14.985Z,100163.23
2018-01-19T10:45:43.053Z,100163.17
2018-01-19T10:48:10.608Z,100165.32
2018-01-19T10:50:38.260Z,100159.28
2018-01-19T10:53:05.844Z,100163.81
2018-01-19T10:55:33.449Z,100172.34
2018-01-19T10:58:01.072Z,100166.19
2018-01-19T11:00:28.660Z,100164.30
2018-01-19T11:02:56.249Z,100158.90
2018-01-19T11:05:23.831Z,100158.61
2018-01-19T11:07:51.439Z,100164.20
2018-01-19T11:10:19.009Z,100161.56
2018-01-19T11:12:46.609Z,100163.55
2018-01-19T11:15:14.411Z,100169.53
2018-01-19T11:17:41.982Z,100170.91
2018-01-19T11:20:09.568Z,100163.64
2018-01-19T11:22:37.167Z,100165.30
2018-01-19T11:25:04.739Z,100165.98
2018-01-19T11:27:32.350Z,100166.45
2018-01-19T11:29:59.988Z,100154.06
2018-01-19T11:32:27.539Z,100170.88
2018-01-19T11:34:55.151Z,100173.32
2018-01-19T11:37:22.763Z,100171.00
2018-01-19T11:39:50.382Z,100167.95
2018-01-19T11:42:17.987Z,100164.34
2018-01-19T11:44:45.566Z,100160.53
2018-01-19T11:47:13.125Z,100162.16
2018-01-19T11:49:41.073Z,100170.49
2018-01-19T11:52:08.629Z,100173.03
2018-01-19T11:54:36.291Z,100172.98
2018-01-19T11:57:03.897Z,100167.91
2018-01-19T11:59:31.450Z,100174.64
2018-01-19T12:01:59.301Z,100176.14
2018-01-19T12:04:26.974Z,100180.16
2018-01-19T12:06:54.655Z,100178.41
2018-01-19T12:09:22.271Z,100186.58
2018-01-19T12:11:49.897Z,100188.53
2018-01-19T12:14:17.458Z,100188.17
2018-01-19T12:16:45.045Z,100180.81
2018-01-19T12:19:12.656Z,100185.58
2018-01-19T12:21:40.225Z,100188.38
2018-01-19T12:24:07.856Z,100190.41
2018-01-19T12:26:35.508Z,100181.20
2018-01-19T12:29:03.064Z,100183.72
2018-01-19T12:31:30.643Z,100188.19
2018-01-19T12:33:58.299Z,100184.14
2018-01-19T12:36:25.860Z,100184.48
2018-01-19T12:38:53.420Z,100184.89
2018-01-19T12:41:21.061Z,100184.98
2018-01-19T12:43:48.767Z,100203.27
2018-01-19T12:46:16.371Z,100203.19
2018-01-19T12:48:43.986Z,100205.41
2018-01-19T12:51:11.597Z,100208.12
2018-01-19T12:53:39.241Z,100207.42
2018-01-19T12:56:06.877Z,100207.52
2018-01-19T12:58:34.507Z,100209.74
2018-01-19T13:01:02.090Z,100213.22
2018-01-19T13:03:29.730Z,100213.36
2018-01-19T13:05:57.596Z,100214.93
2018-01-19T13:08:25.177Z,100230.92
2018-01-19T13:10:52.837Z,100226.38
2018-01-19T13:13:20.810Z,100221.66
2018-01-19T13:15:48.478Z,100225.72
2018-01-19T13:18:16.099Z,100225.20
2018-01-19T13:20:43.759Z,100220.37
2018-01-19T13:23:11.399Z,100226.64
2018-01-19T13:25:39.103Z,100230.87
2018-01-19T13:28:06.701Z,100229.02
2018-01-19T13:30:34.536Z,100232.52
2018-01-19T13:33:02.408Z,100238.45
2018-01-19T13:35:30.182Z,100241.33
2018-01-19T13:37:57.803Z,100238.56
2018-01-19T13:40:25.432Z,100235.56
2018-01-19T13:42:53.220Z,100239.27
2018-01-19T13:45:20.848Z,100240.87
2018-01-19T13:47:48.690Z,100244.27
2018-01-19T13:50:16.250Z,100247.34
2018-01-19T13:52:44.123Z,100248.34
2018-01-19T13:55:11.742Z,100247.64
2018-01-19T13:57:39.480Z,100243.68
2018-01-19T14:00:07.076Z,100248.41
2018-01-19T14:02:34.668Z,100246.22
2018-01-19T14:05:02.223Z,100246.14
2018-01-19T14:07:29.816Z,100243.86
2018-01-19T14:09:57.400Z,100242.30
2018-01-19T14:12:25.026Z,100239.75
2018-01-19T14:14:52.618Z,100243.84
2018-01-19T14:17:20.361Z,100248.67
2018-01-19T14:19:48.052Z,100248.02
2018-01-19T14:22:15.612Z,100255.62
2018-01-19T14:24:43.261Z,100250.54
2018-01-19T14:27:10.959Z,100253.55
2018-01-19T14:29:38.591Z,100255.17
2018-01-19T14:32:06.243Z,100254.91
2018-01-19T14:34:33.807Z,100261.36
2018-01-19T14:37:01.687Z,100260.59
2018-01-19T14:39:29.338Z,100261.77
2018-01-19T14:41:56.894Z,100257.52
2018-01-19T14:44:24.511Z,100266.76
2018-01-19T14:46:52.140Z,100261.02
2018-01-19T14:49:19.744Z,100267.17
2018-01-19T14:51:47.338Z,100266.55
2018-01-19T14:54:15.006Z,100266.66
2018-01-19T14:56:42.561Z,100267.16
2018-01-19T14:59:10.419Z,100272.85
2018-01-19T15:01:38.160Z,100272.32
2018-01-19T15:04:05.749Z,100284.52
2018-01-19T15:06:33.336Z,100287.58
2018-01-19T15:09:00.994Z,100285.17
2018-01-19T15:11:28.583Z,100288.59
2018-01-19T15:13:56.156Z,100286.53
2018-01-19T15:16:23.779Z,100298.66
2018-01-19T15:18:51.721Z,100293.31
2018-01-19T15:21:19.287Z,100295.73
2018-01-19T15:23:46.934Z,100297.89
2018-01-19T15:26:14.710Z,100292.16
2018-01-19T15:28:42.372Z,100301.33
2018-01-19T15:31:10.235Z,100295.48
2018-01-19T15:33:37.814Z,100291.73
2018-01-19T15:36:05.448Z,100295.20
2018-01-19T15:38:33.084Z,100290.27
2018-01-19T15:41:00.664Z,100293.02
2018-01-19T15:43:28.359Z,100299.35
2018-01-19T15:45:55.971Z,100304.87
2018-01-19T15:48:23.886Z,100303.27
2018-01-19T15:50:51.653Z,100300.53
2018-01-19T15:53:19.261Z,100302.89
2018-01-19T15:55:46.842Z,100300.53
2018-01-19T15:58:14.420Z,100302.20
2018-01-19T16:00:42.082Z,100306.02
2018-01-19T16:03:09.956Z,100306.64
2018-01-19T16:05:37.564Z,100305.43
2018-01-19T16:08:05.192Z,100300.08
2018-01-19T16:10:32.813Z,100305.36
2018-01-19T16:13:00.383Z,100308.83
2018-01-19T16:15:28.030Z,100305.60
2018-01-19T16:17:55.609Z,100315.13
2018-01-19T16:20:23.261Z,100306.78
2018-01-19T16:22:50.876Z,100311.20
2018-01-19T16:25:18.450Z,100307.48
2018-01-19T16:27:46.060Z,100307.73
2018-01-19T16:30:13.947Z,100309.75
2018-01-19T16:32:41.559Z,100309.23
2018-01-19T16:35:09.116Z,100315.00
2018-01-19T16:37:37.038Z,100314.97
2018-01-19T16:40:04.619Z,100315.97
2018-01-19T16:42:32.175Z,100311.42
2018-01-19T16:44:59.778Z,100313.23
2018-01-19T16:47:27.441Z,100311.14
2018-01-19T16:49:55.030Z,100311.25
2018-01-19T16:52:22.623Z,100315.94
2018-01-19T16:54:50.204Z,100314.34
2018-01-19T16:57:17.788Z,100306.45
2018-01-19T16:59:45.399Z,100304.06
2018-01-19T17:02:12.969Z,100308.20
2018-01-19T17:04:40.548Z,100320.00
2018-01-19T17:07:08.149Z,100323.02
2018-01-19T17:09:35.696Z,100323.62
2018-01-19T17:12:03.286Z,100324.03
2018-01-19T17:14:30.883Z,100324.31
2018-01-19T17:16:58.439Z,100320.42
2018-01-19T17:19:26.106Z,100325.70
2018-01-19T17:21:53.779Z,100331.22
2018-01-19T17:24:21.335Z,100332.84
2018-01-19T17:26:48.928Z,100332.16
2018-01-19T17:29:17.075Z,100336.63
2018-01-19T17:31:44.680Z,100331.53
2018-01-19T17:34:12.265Z,100330.25
2018-01-19T17:36:39.892Z,100327.88
2018-01-19T17:39:07.506Z,100332.11
2018-01-19T17:41:35.167Z,100341.45
2018-01-19T17:44:02.939Z,100349.34
2018-01-19T17:46:30.617Z,100351.83
2018-01-19T17:48:58.184Z,100350.69
2018-01-19T17:51:25.835Z,100350.97
2018-01-19T17:53:53.529Z,100349.92
2018-01-19T17:56:21.151Z,100352.64
2018-01-19T17:58:49.141Z,100351.06
2018-01-19T18:01:16.708Z,100355.57
2018-01-19T18:03:44.325Z,100362.85
2018-01-19T18:06:11.921Z,100370.80
2018-01-19T18:08:39.517Z,100374.41
2018-01-19T18:11:07.206Z,100375.75
2018-01-19T18:13:35.102Z,100376.02
2018-01-19T18:16:03.090Z,100375.60
2018-01-19T18:18:30.871Z,100376.61
2018-01-19T18:20:58.490Z,100375.23
2018-01-19T18:23:26.090Z,100377.38
2018-01-19T18:25:53.790Z,100384.19
2018-01-19T18:28:21.481Z,100384.19
2018-01-19T18:30:49.226Z,100379.33
2018-01-19T18:33:17.104Z,100374.01
2018-01-19T18:35:44.748Z,100376.01
2018-01-19T18:38:12.357Z,100371.70
2018-01-19T18:40:39.969Z,100379.92
2018-01-19T18:43:07.574Z,100374.02
2018-01-19T18:45:35.186Z,100375.33
2018-01-19T18:48:02.796Z,100370.67
2018-01-19T18:50:30.428Z,100374.22
2018-01-19T18:52:58.128Z,100373.64
2018-01-19T18:55:25.730Z,100371.49
2018-01-19T18:57:53.544Z,100374.22
2018-01-19T19:00:21.115Z,100374.56
2018-01-19T19:02:48.672Z,100370.18
2018-01-19T19:05:16.282Z,100373.59
2018-01-19T19:07:43.829Z,100374.91
2018-01-19T19:10:11.448Z,100373.85
2018-01-19T19:12:39.022Z,100381.23
2018-01-19T19:15:06.655Z,100380.32
2018-01-19T19:17:34.222Z,100380.39
2018-01-19T19:20:01.866Z,100384.05
2018-01-19T19:22:29.449Z,100381.02
2018-01-19T19:24:57.008Z,100381.08
2018-01-19T19:27:24.651Z,100380.80
2018-01-19T19:29:52.243Z,100378.66
2018-01-19T19:32:19.873Z,100385.50
2018-01-19T19:34:48.081Z,100379.27
2018-01-19T19:37:15.649Z,100380.31
2018-01-19T19:39:43.305Z,100374.22
2018-01-19T19:42:10.891Z,100380.88
2018-01-19T19:44:38.534Z,100380.04
2018-01-19T19:47:06.083Z,100380.19
2018-01-19T19:49:34.565Z,100382.53
2018-01-19T19:52:02.152Z,100378.50
2018-01-19T19:54:29.710Z,100380.88
2018-01-19T19:56:57.656Z,100377.67
2018-01-19T19:59:25.699Z,100382.04
2018-01-19T20:01:53.624Z,100386.76
2018-01-19T20:04:21.587Z,100385.81
2018-01-19T20:06:49.197Z,100389.89
2018-01-19T20:09:16.817Z,100390.72
2018-01-19T20:11:44.467Z,100395.71
2018-01-19T20:14:12.035Z,100396.42
2018-01-19T20:16:39.635Z,100402.64
2018-01-19T20:19:07.220Z,100402.66
2018-01-19T20:21:34.798Z,100403.91
2018-01-19T20:24:02.367Z,100411.38
2018-01-19T20:26:30.039Z,100398.47
2018-01-19T20:28:57.595Z,100403.13
2018-01-19T20:31:25.148Z,100401.00
2018-01-19T20:33:52.750Z,100399.59
2018-01-19T20:36:20.335Z,100403.28
2018-01-19T20:38:47.892Z,100400.49
2018-01-19T20:41:15.549Z,100390.94
2018-01-19T20:43:43.226Z,100395.03
2018-01-19T20:46:10.916Z,100393.16
2018-01-19T20:48:38.540Z,100388.93
2018-01-19T20:51:06.444Z,100387.27
2018-01-19T20:53:34.045Z,100387.81
2018-01-19T20:56:01.635Z,100388.63
2018-01-19T20:58:29.219Z,100384.84
2018-01-19T21:00:56.794Z,100386.50
2018-01-19T21:03:24.436Z,100382.55
2018-01-19T21:05:52.121Z,100386.50
2018-01-19T21:08:19.697Z,100383.98
2018-01-19T21:10:47.309Z,100382.75
2018-01-19T21:13:14.971Z,100388.50
2018-01-19T21:15:42.825Z,100388.79
2018-01-19T21:18:10.469Z,100388.98
2018-01-19T21:20:38.050Z,100389.35
2018-01-19T21:23:05.858Z,100384.98
2018-01-19T21:25:33.515Z,100396.97
2018-01-19T21:28:01.170Z,100398.08
2018-01-19T21:30:28.839Z,100395.22
2018-01-19T21:32:56.449Z,100392.33
2018-01-19T21:35:24.037Z,100398.42
2018-01-19T21:37:51.962Z,100394.55
2018-01-19T21:40:19.544Z,100392.39
2018-01-19T21:42:47.101Z,100391.68
2018-01-19T21:45:14.655Z,100394.05
2018-01-19T21:47:42.248Z,100395.99
2018-01-19T21:50:09.820Z,100395.23
2018-01-19T21:52:37.677Z,100394.39
2018-01-19T21:55:05.336Z,100394.95
2018-01-19T21:57:32.900Z,100400.16
2018-01-19T22:00:00.481Z,100400.79
2018-01-19T22:02:28.090Z,100402.64
2018-01-19T22:04:55.637Z,100404.03
2018-01-19T22:07:23.176Z,100407.49
2018-01-19T22:09:50.827Z,100404.85
2018-01-19T22:12:18.421Z,100397.49
2018-01-19T22:14:46.271Z,100401.36
2018-01-19T22:17:14.244Z,100400.53
2018-01-19T22:19:41.828Z,100392.49
2018-01-19T22:22:09.381Z,100400.95
2018-01-19T22:24:36.973Z,100394.36
2018-01-19T22:27:05.013Z,100398.09
2018-01-19T22:29:32.570Z,100398.98
2018-01-19T22:32:00.161Z,100395.65
2018-01-19T22:34:27.758Z,100391.21
2018-01-19T22:36:55.411Z,100392.41
2018-01-19T22:39:22.982Z,100399.59
2018-01-19T22:41:50.598Z,100396.06
2018-01-19T22:44:18.170Z,100397.09
2018-01-19T22:46:45.817Z,100397.64
2018-01-19T22:49:13.406Z,100395.55
2018-01-19T22:51:41.013Z,100397.73
2018-01-19T22:54:08.709Z,100389.03
2018-01-19T22:56:36.260Z,100397.50
2018-01-19T22:59:04.067Z,100394.84
2018-01-19T23:01:31.749Z,100401.71
2018-01-19T23:03:59.319Z,100397.75
2018-01-19T23:06:26.904Z,100401.29
2018-01-19T23:08:54.770Z,100398.37
2018-01-19T23:11:22.343Z,100407.39
2018-01-19T23:13:49.912Z,100401.30
2018-01-19T23:16:17.506Z,100407.63
2018-01-19T23:18:45.109Z,100402.77
2018-01-19T23:21:12.676Z,100400.69
2018-01-19T23:23:40.288Z,100401.72
2018-01-19T23:26:08.197Z,100402.48
2018-01-19T23:28:35.748Z,100402.13
2018-01-19T23:31:03.333Z,100403.55
2018-01-19T23:33:30.928Z,100404.59
2018-01-19T23:35:58.510Z,100403.92
2018-01-19T23:38:26.173Z,100408.47
2018-01-19T23:40:53.767Z,100414.16
2018-01-19T23:43:21.323Z,100414.33
2018-01-19T23:45:48.978Z,100407.88
2018-01-19T23:48:16.543Z,100413.32
2018-01-19T23:50:44.144Z,100403.41
2018-01-19T23:53:11.763Z,100403.34
2018-01-19T23:55:39.640Z,100404.05
2018-01-19T23:58:07.186Z,100406.02
